createdAt,value
2022-08-18T00:00:33.896Z,1004.74
2022-08-18T00:01:33.964Z,1004.73
2022-08-18T00:02:33.954Z,1004.74
2022-08-18T00:03:56.219Z,1004.75
2022-08-18T00:04:35.924Z,1004.81
2022-08-18T00:05:33.825Z,1004.82
2022-08-18T00:06:33.810Z,1004.84
2022-08-18T00:07:33.787Z,1004.84
2022-08-18T00:08:37.334Z,1004.82
2022-08-18T00:09:33.758Z,1004.88
2022-08-18T00:10:33.742Z,1004.88
2022-08-18T00:11:41.712Z,1004.84
2022-08-18T00:12:33.718Z,1004.88
2022-08-18T00:13:33.694Z,1004.87
2022-08-18T00:14:33.678Z,1004.84
2022-08-18T00:15:48.773Z,1004.88
2022-08-18T00:16:33.652Z,1004.88
2022-08-18T00:17:33.632Z,1004.88
2022-08-18T00:18:33.620Z,1004.93
2022-08-18T00:19:46.866Z,1004.87
2022-08-18T00:20:33.586Z,1004.91
2022-08-18T00:21:33.571Z,1004.90
2022-08-18T00:22:33.557Z,1004.96
2022-08-18T00:23:33.537Z,1004.96
2022-08-18T00:24:33.524Z,1005.01
2022-08-18T00:25:33.512Z,1005.01
2022-08-18T00:26:36.808Z,1005.03
2022-08-18T00:27:33.478Z,1005.05
2022-08-18T00:28:33.466Z,1005.05
2022-08-18T00:29:33.450Z,1005.08
2022-08-18T00:30:33.432Z,1005.12
2022-08-18T00:31:33.413Z,1005.14
2022-08-18T00:32:33.402Z,1005.18
2022-08-18T00:33:33.382Z,1005.20
2022-08-18T00:34:33.369Z,1005.26
2022-08-18T00:35:33.352Z,1005.23
2022-08-18T00:36:33.340Z,1005.24
2022-08-18T00:37:33.320Z,1005.19
2022-08-18T00:38:33.306Z,1005.20
2022-08-18T00:39:34.216Z,1005.16
2022-08-18T00:40:37.686Z,1005.12
2022-08-18T00:41:33.259Z,1005.12
2022-08-18T00:42:33.247Z,1005.16
2022-08-18T00:43:33.228Z,1005.13
2022-08-18T00:44:33.219Z,1005.12
2022-08-18T00:45:33.198Z,1005.08
2022-08-18T00:46:33.184Z,1005.12
2022-08-18T00:47:42.633Z,1005.11
2022-08-18T00:48:33.150Z,1005.12
2022-08-18T00:49:33.133Z,1005.11
2022-08-18T00:50:33.121Z,1005.11
2022-08-18T00:51:33.107Z,1005.07
2022-08-18T00:52:33.088Z,1005.10
2022-08-18T00:53:33.071Z,1005.12
2022-08-18T00:54:33.056Z,1005.11
2022-08-18T00:55:33.040Z,1005.07
2022-08-18T00:56:33.028Z,1005.08
2022-08-18T00:57:33.009Z,1005.12
2022-08-18T00:58:35.628Z,1005.16
2022-08-18T00:59:32.979Z,1005.12
2022-08-18T01:00:33.021Z,1005.12
2022-08-18T01:01:32.946Z,1005.10
2022-08-18T01:02:32.933Z,1005.11
2022-08-18T01:03:32.918Z,1005.10
2022-08-18T01:04:32.899Z,1005.11
2022-08-18T01:05:32.885Z,1005.12
2022-08-18T01:06:32.869Z,1005.14
2022-08-18T01:07:32.852Z,1005.13
2022-08-18T01:08:32.839Z,1005.16
2022-08-18T01:09:32.820Z,1005.17
2022-08-18T01:10:32.808Z,1005.17
2022-08-18T01:11:32.789Z,1005.14
2022-08-18T01:12:45.592Z,1005.14
2022-08-18T01:13:32.757Z,1005.10
2022-08-18T01:14:32.754Z,1005.15
2022-08-18T01:15:32.724Z,1005.12
2022-08-18T01:16:32.711Z,1005.12
2022-08-18T01:17:32.694Z,1005.08
2022-08-18T01:18:32.680Z,1005.08
2022-08-18T01:19:32.662Z,1005.05
2022-08-18T01:20:32.650Z,1005.08
2022-08-18T01:21:32.650Z,1005.08
2022-08-18T01:22:32.617Z,1005.08
2022-08-18T01:23:32.611Z,1005.07
2022-08-18T01:24:32.594Z,1005.06
2022-08-18T01:25:32.575Z,1005.09
2022-08-18T01:26:32.559Z,1005.09
2022-08-18T01:27:32.541Z,1005.07
2022-08-18T01:28:32.526Z,1005.09
2022-08-18T01:29:32.506Z,1005.08
2022-08-18T01:30:32.491Z,1005.05
2022-08-18T01:31:32.477Z,1005.06
2022-08-18T01:32:32.463Z,1005.06
2022-08-18T01:33:32.467Z,1005.06
2022-08-18T01:34:32.428Z,1005.06
2022-08-18T01:35:37.117Z,1005.01
2022-08-18T01:36:32.400Z,1004.96
2022-08-18T01:37:32.381Z,1004.99
2022-08-18T01:38:32.366Z,1004.96
2022-08-18T01:41:21.023Z,1004.96
2022-08-18T01:41:23.344Z,1004.93
2022-08-18T01:41:32.385Z,1004.95
2022-08-18T01:42:32.320Z,1004.92
2022-08-18T01:43:32.286Z,1004.91
2022-08-18T01:44:32.272Z,1004.91
2022-08-18T01:45:32.256Z,1004.88
2022-08-18T01:46:32.241Z,1004.86
2022-08-18T01:47:33.005Z,1004.84
2022-08-18T01:48:32.211Z,1004.88
2022-08-18T01:49:32.192Z,1004.85
2022-08-18T01:50:32.179Z,1004.88
2022-08-18T01:51:39.921Z,1004.85
2022-08-18T01:52:32.149Z,1004.88
2022-08-18T01:53:32.128Z,1004.89
2022-08-18T01:54:32.115Z,1004.90
2022-08-18T01:55:32.099Z,1004.85
2022-08-18T01:56:32.086Z,1004.82
2022-08-18T01:57:32.065Z,1004.80
2022-08-18T01:58:32.051Z,1004.77
2022-08-18T01:59:32.035Z,1004.78
2022-08-18T02:00:32.022Z,1004.74
2022-08-18T02:01:36.471Z,1004.72
2022-08-18T02:02:31.989Z,1004.73
2022-08-18T02:03:31.974Z,1004.71
2022-08-18T02:04:35.522Z,1004.68
2022-08-18T02:05:31.941Z,1004.67
2022-08-18T02:06:33.508Z,1004.72
2022-08-18T02:07:36.477Z,1004.71
2022-08-18T02:08:31.895Z,1004.71
2022-08-18T02:09:31.878Z,1004.72
2022-08-18T02:10:31.863Z,1004.75
2022-08-18T02:11:31.842Z,1004.75
2022-08-18T02:12:31.837Z,1004.82
2022-08-18T02:13:31.817Z,1004.75
2022-08-18T02:14:31.798Z,1004.77
2022-08-18T02:15:31.781Z,1004.78
2022-08-18T02:16:31.771Z,1004.77
2022-08-18T02:17:31.754Z,1004.78
2022-08-18T02:18:47.371Z,1004.81
2022-08-18T02:19:31.719Z,1004.81
2022-08-18T02:20:31.706Z,1004.86
2022-08-18T02:21:31.692Z,1004.88
2022-08-18T02:22:31.673Z,1004.91
2022-08-18T02:23:31.660Z,1004.92
2022-08-18T02:24:31.643Z,1004.90
2022-08-18T02:25:31.626Z,1004.87
2022-08-18T02:26:31.610Z,1004.93
2022-08-18T02:27:31.594Z,1004.87
2022-08-18T02:28:31.580Z,1004.84
2022-08-18T02:29:31.583Z,1004.83
2022-08-18T02:30:31.555Z,1004.84
2022-08-18T02:31:31.534Z,1004.83
2022-08-18T02:32:31.517Z,1004.89
2022-08-18T02:33:31.501Z,1004.90
2022-08-18T02:34:31.488Z,1004.91
2022-08-18T02:35:31.474Z,1004.98
2022-08-18T02:36:31.456Z,1004.96
2022-08-18T02:37:31.438Z,1005.00
2022-08-18T02:38:33.460Z,1005.00
2022-08-18T02:39:31.481Z,1005.02
2022-08-18T02:40:31.391Z,1005.01
2022-08-18T02:41:31.407Z,1005.00
2022-08-18T02:42:31.361Z,1005.00
2022-08-18T02:43:36.233Z,1004.97
2022-08-18T02:44:31.328Z,1005.02
2022-08-18T02:45:31.313Z,1005.05
2022-08-18T02:46:31.578Z,1005.09
2022-08-18T02:47:33.673Z,1005.06
2022-08-18T02:48:31.267Z,1005.05
2022-08-18T02:49:31.247Z,1005.05
2022-08-18T02:50:31.234Z,1005.06
2022-08-18T02:51:31.216Z,1005.04
2022-08-18T02:52:31.204Z,1005.04
2022-08-18T02:53:31.186Z,1005.04
2022-08-18T02:54:31.178Z,1005.04
2022-08-18T02:55:31.153Z,1005.02
2022-08-18T02:56:32.741Z,1004.99
2022-08-18T02:57:31.127Z,1004.98
2022-08-18T02:58:33.657Z,1005.01
2022-08-18T02:59:31.898Z,1004.97
2022-08-18T03:00:31.077Z,1005.02
2022-08-18T03:01:31.118Z,1005.01
2022-08-18T03:02:31.046Z,1004.98
2022-08-18T03:03:31.030Z,1005.06
2022-08-18T03:04:31.013Z,1005.00
2022-08-18T03:05:30.997Z,1005.01
2022-08-18T03:06:30.982Z,1005.05
2022-08-18T03:07:30.966Z,1005.04
2022-08-18T03:08:30.950Z,1005.03
2022-08-18T03:09:30.934Z,1005.05
2022-08-18T03:10:34.045Z,1005.06
2022-08-18T03:11:30.902Z,1005.02
2022-08-18T03:12:30.893Z,1004.96
2022-08-18T03:13:30.872Z,1004.98
2022-08-18T03:14:30.857Z,1004.96
2022-08-18T03:15:30.843Z,1004.93
2022-08-18T03:16:30.825Z,1004.95
2022-08-18T03:17:30.809Z,1004.93
2022-08-18T03:18:30.835Z,1004.92
2022-08-18T03:19:30.777Z,1004.95
2022-08-18T03:20:31.567Z,1004.92
2022-08-18T03:21:30.753Z,1004.90
2022-08-18T03:22:31.075Z,1004.92
2022-08-18T03:23:30.714Z,1004.89
2022-08-18T03:24:30.704Z,1004.86
2022-08-18T03:25:30.682Z,1004.85
2022-08-18T03:26:30.673Z,1004.84
2022-08-18T03:27:30.650Z,1004.82
2022-08-18T03:28:30.641Z,1004.81
2022-08-18T03:29:32.776Z,1004.80
2022-08-18T03:30:30.602Z,1004.81
2022-08-18T03:31:30.601Z,1004.81
2022-08-18T03:32:30.576Z,1004.78
2022-08-18T03:33:30.557Z,1004.83
2022-08-18T03:34:30.542Z,1004.81
2022-08-18T03:35:30.522Z,1004.85
2022-08-18T03:36:30.509Z,1004.86
2022-08-18T03:37:30.493Z,1004.89
2022-08-18T03:38:30.477Z,1004.85
2022-08-18T03:39:30.543Z,1004.92
2022-08-18T03:40:30.446Z,1004.88
2022-08-18T03:41:44.081Z,1004.90
2022-08-18T03:42:30.414Z,1004.93
2022-08-18T03:43:50.708Z,1004.92
2022-08-18T03:44:30.424Z,1004.92
2022-08-18T03:45:30.366Z,1004.97
2022-08-18T03:46:30.350Z,1004.93
2022-08-18T03:47:30.334Z,1004.98
2022-08-18T03:48:30.319Z,1004.99
2022-08-18T03:49:30.301Z,1005.01
2022-08-18T03:50:30.287Z,1004.99
2022-08-18T03:51:30.270Z,1005.01
2022-08-18T03:52:30.257Z,1004.99
2022-08-18T03:53:30.240Z,1005.00
2022-08-18T03:54:30.225Z,1004.98
2022-08-18T03:55:30.205Z,1004.98
2022-08-18T03:56:30.193Z,1005.00
2022-08-18T03:57:30.178Z,1004.97
2022-08-18T03:58:30.164Z,1004.97
2022-08-18T03:59:30.145Z,1004.95
2022-08-18T04:00:30.148Z,1004.96
2022-08-18T04:01:30.240Z,1004.97
2022-08-18T04:02:30.100Z,1004.97
2022-08-18T04:03:30.083Z,1004.97
2022-08-18T04:04:30.065Z,1005.00
2022-08-18T04:05:30.051Z,1005.00
2022-08-18T04:06:30.637Z,1005.01
2022-08-18T04:07:30.019Z,1005.00
2022-08-18T04:08:30.002Z,1004.92
2022-08-18T04:09:29.994Z,1004.91
2022-08-18T04:10:29.970Z,1004.94
2022-08-18T04:11:29.958Z,1004.91
2022-08-18T04:12:29.939Z,1004.87
2022-08-18T04:13:29.924Z,1004.88
2022-08-18T04:14:29.911Z,1004.91
2022-08-18T04:15:29.896Z,1004.95
2022-08-18T04:16:29.875Z,1004.92
2022-08-18T04:17:29.863Z,1004.94
2022-08-18T04:18:29.842Z,1004.92
2022-08-18T04:19:29.831Z,1004.89
2022-08-18T04:20:29.815Z,1004.86
2022-08-18T04:21:29.802Z,1004.90
2022-08-18T04:22:29.781Z,1004.86
2022-08-18T04:23:29.768Z,1004.88
2022-08-18T04:24:31.163Z,1004.88
2022-08-18T04:25:32.848Z,1004.93
2022-08-18T04:26:29.715Z,1004.93
2022-08-18T04:27:29.713Z,1004.93
2022-08-18T04:28:29.687Z,1004.97
2022-08-18T04:29:29.674Z,1004.96
2022-08-18T04:30:29.654Z,1004.95
2022-08-18T04:31:29.652Z,1004.99
2022-08-18T04:32:29.989Z,1005.00
2022-08-18T04:33:29.611Z,1005.05
2022-08-18T04:34:29.592Z,1005.04
2022-08-18T04:35:29.574Z,1005.03
2022-08-18T04:36:29.558Z,1005.04
2022-08-18T04:37:29.543Z,1005.04
2022-08-18T04:38:29.527Z,1005.07
2022-08-18T04:39:29.596Z,1005.11
2022-08-18T04:40:29.611Z,1005.10
2022-08-18T04:41:29.518Z,1005.08
2022-08-18T04:42:29.463Z,1005.14
2022-08-18T04:43:29.450Z,1005.07
2022-08-18T04:44:29.439Z,1005.08
2022-08-18T04:45:29.616Z,1005.09
2022-08-18T04:46:29.398Z,1005.10
2022-08-18T04:47:29.385Z,1005.09
2022-08-18T04:48:29.370Z,1005.07
2022-08-18T04:49:29.354Z,1005.10
2022-08-18T04:50:29.334Z,1005.09
2022-08-18T04:52:37.041Z,1005.15
2022-08-18T04:52:40.629Z,1005.12
2022-08-18T04:53:29.292Z,1005.12
2022-08-18T04:54:29.271Z,1005.19
2022-08-18T04:55:29.262Z,1005.21
2022-08-18T04:56:29.240Z,1005.21
2022-08-18T04:57:29.234Z,1005.21
2022-08-18T04:58:29.212Z,1005.25
2022-08-18T04:59:29.194Z,1005.23
2022-08-18T05:00:29.179Z,1005.24
2022-08-18T05:01:29.191Z,1005.28
2022-08-18T05:02:29.147Z,1005.27
2022-08-18T05:03:29.130Z,1005.22
2022-08-18T05:04:29.115Z,1005.23
2022-08-18T05:05:29.097Z,1005.22
2022-08-18T05:06:29.080Z,1005.25
2022-08-18T05:07:29.072Z,1005.24
2022-08-18T05:08:29.048Z,1005.24
2022-08-18T05:09:29.034Z,1005.21
2022-08-18T05:10:29.018Z,1005.25
2022-08-18T05:11:29.028Z,1005.21
2022-08-18T05:12:29.006Z,1005.23
2022-08-18T05:13:29.304Z,1005.22
2022-08-18T05:14:28.953Z,1005.24
2022-08-18T05:15:38.323Z,1005.22
2022-08-18T05:16:28.923Z,1005.23
2022-08-18T05:18:28.893Z,1005.23
2022-08-18T05:19:28.872Z,1005.23
2022-08-18T05:20:29.062Z,1005.22
2022-08-18T05:21:28.841Z,1005.22
2022-08-18T05:22:30.887Z,1005.24
2022-08-18T05:23:29.036Z,1005.23
2022-08-18T05:24:34.054Z,1005.23
2022-08-18T05:25:28.778Z,1005.25
2022-08-18T05:26:28.763Z,1005.28
2022-08-18T05:27:28.746Z,1005.27
2022-08-18T05:28:28.733Z,1005.27
2022-08-18T05:29:28.914Z,1005.25
2022-08-18T05:31:28.716Z,1005.25
2022-08-18T05:32:38.253Z,1005.25
2022-08-18T05:34:28.637Z,1005.31
2022-08-18T05:35:28.644Z,1005.29
2022-08-18T05:36:28.638Z,1005.33
2022-08-18T05:37:29.021Z,1005.36
2022-08-18T05:38:28.600Z,1005.37
2022-08-18T05:39:28.626Z,1005.37
2022-08-18T05:40:28.874Z,1005.41
2022-08-18T05:41:28.753Z,1005.40
2022-08-18T05:43:28.724Z,1005.42
2022-08-18T05:44:28.706Z,1005.44
2022-08-18T05:45:28.496Z,1005.46
2022-08-18T05:46:28.470Z,1005.40
2022-08-18T05:47:28.658Z,1005.37
2022-08-18T05:49:28.625Z,1005.45
2022-08-18T05:50:28.405Z,1005.46
2022-08-18T05:51:28.395Z,1005.44
2022-08-18T05:52:28.374Z,1005.44
2022-08-18T05:53:28.566Z,1005.47
2022-08-18T05:54:28.352Z,1005.42
2022-08-18T05:55:28.330Z,1005.43
2022-08-18T05:56:28.716Z,1005.45
2022-08-18T05:59:28.673Z,1005.42
2022-08-18T06:00:28.686Z,1005.44
2022-08-18T06:02:28.218Z,1005.41
2022-08-18T06:05:28.375Z,1005.46
2022-08-18T06:06:28.158Z,1005.46
2022-08-18T06:07:28.543Z,1005.47
2022-08-18T06:08:28.328Z,1005.48
2022-08-18T06:09:28.380Z,1005.46
2022-08-18T06:10:28.601Z,1005.47
2022-08-18T06:12:28.059Z,1005.49
2022-08-18T06:13:28.256Z,1005.46
2022-08-18T06:14:28.026Z,1005.47
2022-08-18T06:15:28.210Z,1005.43
2022-08-18T06:16:27.967Z,1005.44
2022-08-18T06:17:27.955Z,1005.42
2022-08-18T06:18:27.936Z,1005.42
2022-08-18T06:19:27.948Z,1005.43
2022-08-18T06:20:27.977Z,1005.46
2022-08-18T06:21:27.921Z,1005.50
2022-08-18T06:22:30.553Z,1005.50
2022-08-18T06:23:27.860Z,1005.51
2022-08-18T06:24:27.844Z,1005.48
2022-08-18T06:25:28.064Z,1005.52
2022-08-18T06:26:28.037Z,1005.53
2022-08-18T06:27:27.824Z,1005.56
2022-08-18T06:28:27.801Z,1005.58
2022-08-18T06:29:27.966Z,1005.57
2022-08-18T06:30:27.768Z,1005.63
2022-08-18T06:31:29.568Z,1005.69
2022-08-18T06:32:28.451Z,1005.72
2022-08-18T06:33:28.135Z,1005.74
2022-08-18T06:35:27.690Z,1005.75
2022-08-18T06:36:27.881Z,1005.75
2022-08-18T06:37:27.660Z,1005.75
2022-08-18T06:38:27.619Z,1005.77
2022-08-18T06:39:27.695Z,1005.75
2022-08-18T06:40:29.026Z,1005.76
2022-08-18T06:41:40.393Z,1005.79
2022-08-18T06:42:27.787Z,1005.77
2022-08-18T06:43:27.870Z,1005.74
2022-08-18T06:44:27.764Z,1005.77
2022-08-18T06:45:34.021Z,1005.79
2022-08-18T06:46:27.526Z,1005.79
2022-08-18T06:47:27.501Z,1005.81
2022-08-18T06:48:27.798Z,1005.83
2022-08-18T06:49:28.181Z,1005.85
2022-08-18T06:50:27.975Z,1005.88
2022-08-18T06:52:27.437Z,1005.93
2022-08-18T06:53:28.399Z,1005.91
2022-08-18T06:54:28.474Z,1005.91
2022-08-18T06:55:27.576Z,1005.89
2022-08-18T06:56:27.560Z,1005.91
2022-08-18T06:57:27.320Z,1005.99
2022-08-18T06:58:27.530Z,1006.01
2022-08-18T06:59:27.287Z,1005.99
2022-08-18T07:00:27.271Z,1006.04
2022-08-18T07:01:27.303Z,1006.04
2022-08-18T07:02:27.235Z,1006.10
2022-08-18T07:03:27.220Z,1006.12
2022-08-18T07:04:27.237Z,1006.10
2022-08-18T07:05:27.192Z,1006.10
2022-08-18T07:06:27.198Z,1006.14
2022-08-18T07:07:27.183Z,1006.12
2022-08-18T07:08:27.173Z,1006.12
2022-08-18T07:09:27.153Z,1006.13
2022-08-18T07:10:27.106Z,1006.12
2022-08-18T07:11:27.325Z,1006.11
2022-08-18T07:12:32.251Z,1006.12
2022-08-18T07:13:27.107Z,1006.12
2022-08-18T07:14:27.274Z,1006.12
2022-08-18T07:15:27.062Z,1006.14
2022-08-18T07:16:47.408Z,1006.17
2022-08-18T07:17:52.909Z,1006.18
2022-08-18T07:18:27.013Z,1006.16
2022-08-18T07:19:26.998Z,1006.18
2022-08-18T07:20:26.975Z,1006.17
2022-08-18T07:21:27.296Z,1006.17
2022-08-18T07:22:30.082Z,1006.17
2022-08-18T07:23:27.133Z,1006.18
2022-08-18T07:24:26.914Z,1006.20
2022-08-18T07:26:27.083Z,1006.20
2022-08-18T07:27:27.068Z,1006.21
2022-08-18T07:28:26.849Z,1006.21
2022-08-18T07:29:26.835Z,1006.22
2022-08-18T07:30:27.132Z,1006.23
2022-08-18T07:31:27.203Z,1006.22
2022-08-18T07:33:26.847Z,1006.22
2022-08-18T07:34:26.764Z,1006.19
2022-08-18T07:35:26.745Z,1006.22
2022-08-18T07:36:27.586Z,1006.21
2022-08-18T07:37:29.008Z,1006.22
2022-08-18T07:38:43.835Z,1006.24
2022-08-18T07:39:27.103Z,1006.23
2022-08-18T07:40:26.657Z,1006.22
2022-08-18T07:41:26.874Z,1006.17
2022-08-18T07:42:50.623Z,1006.16
2022-08-18T07:43:26.694Z,1006.19
2022-08-18T07:44:26.801Z,1006.20
2022-08-18T07:45:26.727Z,1006.19
2022-08-18T07:46:27.376Z,1006.19
2022-08-18T07:48:38.279Z,1006.23
2022-08-18T07:49:26.545Z,1006.21
2022-08-18T07:50:55.183Z,1006.24
2022-08-18T07:51:26.741Z,1006.22
2022-08-18T07:52:44.162Z,1006.23
2022-08-18T07:54:48.262Z,1006.21
2022-08-18T07:55:26.696Z,1006.24
2022-08-18T07:56:26.444Z,1006.23
2022-08-18T07:57:26.434Z,1006.21
2022-08-18T07:58:26.831Z,1006.24
2022-08-18T07:59:26.357Z,1006.27
2022-08-18T08:00:55.289Z,1006.25
2022-08-18T08:02:26.372Z,1006.25
2022-08-18T08:03:26.523Z,1006.28
2022-08-18T08:04:27.219Z,1006.27
2022-08-18T08:05:26.755Z,1006.25
2022-08-18T08:06:26.519Z,1006.21
2022-08-18T08:07:26.598Z,1006.22
2022-08-18T08:08:26.254Z,1006.20
2022-08-18T08:09:26.211Z,1006.18
2022-08-18T08:10:26.254Z,1006.24
2022-08-18T08:11:26.197Z,1006.22
2022-08-18T08:13:53.641Z,1006.22
2022-08-18T08:16:26.623Z,1006.25
2022-08-18T08:17:26.754Z,1006.24
2022-08-18T08:18:26.066Z,1006.23
2022-08-18T08:19:49.359Z,1006.22
2022-08-18T08:20:26.244Z,1006.20
2022-08-18T08:21:26.017Z,1006.19
2022-08-18T08:22:26.020Z,1006.26
2022-08-18T08:23:26.180Z,1006.25
2022-08-18T08:24:26.568Z,1006.26
2022-08-18T08:25:45.736Z,1006.25
2022-08-18T08:27:26.325Z,1006.23
2022-08-18T08:28:26.103Z,1006.27
2022-08-18T08:29:26.165Z,1006.29
2022-08-18T08:30:28.470Z,1006.30
2022-08-18T08:31:36.827Z,1006.29
2022-08-18T08:32:25.872Z,1006.32
2022-08-18T08:35:49.933Z,1006.35
2022-08-18T08:37:25.753Z,1006.37
2022-08-18T08:38:42.948Z,1006.40
2022-08-18T08:40:25.715Z,1006.39
2022-08-18T08:41:25.974Z,1006.39
2022-08-18T08:43:25.918Z,1006.41
2022-08-18T08:45:25.676Z,1006.40
2022-08-18T08:46:26.008Z,1006.41
2022-08-18T08:47:25.722Z,1006.37
2022-08-18T08:48:26.459Z,1006.33
2022-08-18T08:50:25.542Z,1006.39
2022-08-18T08:54:25.886Z,1006.43
2022-08-18T08:56:25.450Z,1006.48
2022-08-18T08:57:25.742Z,1006.46
2022-08-18T08:58:25.423Z,1006.46
2022-08-18T09:01:25.863Z,1006.44
2022-08-18T09:02:46.720Z,1006.48
2022-08-18T09:03:30.550Z,1006.46
2022-08-18T09:05:25.366Z,1006.46
2022-08-18T09:06:25.699Z,1006.48
2022-08-18T09:07:25.292Z,1006.48
2022-08-18T09:08:25.275Z,1006.52
2022-08-18T09:09:25.251Z,1006.46
2022-08-18T09:11:25.219Z,1006.44
2022-08-18T09:12:25.402Z,1006.45
2022-08-18T09:14:25.168Z,1006.49
2022-08-18T09:15:25.381Z,1006.50
2022-08-18T09:16:27.826Z,1006.52
2022-08-18T09:17:28.345Z,1006.53
2022-08-18T09:19:25.310Z,1006.56
2022-08-18T09:20:25.075Z,1006.54
2022-08-18T09:21:25.667Z,1006.52
2022-08-18T09:22:25.247Z,1006.51
2022-08-18T09:25:25.196Z,1006.48
2022-08-18T09:26:25.589Z,1006.51
2022-08-18T09:28:24.942Z,1006.52
2022-08-18T09:29:25.136Z,1006.51
2022-08-18T09:30:25.392Z,1006.52
2022-08-18T09:31:25.710Z,1006.54
2022-08-18T09:33:25.069Z,1006.55
2022-08-18T09:34:25.259Z,1006.60
2022-08-18T09:35:26.451Z,1006.63
2022-08-18T09:36:25.783Z,1006.70
2022-08-18T09:38:26.023Z,1006.77
2022-08-18T09:40:44.378Z,1006.82
2022-08-18T09:41:24.945Z,1006.85
2022-08-18T09:42:30.107Z,1006.84
2022-08-18T09:43:25.567Z,1006.87
2022-08-18T09:44:26.692Z,1006.85
2022-08-18T09:45:24.677Z,1006.86
2022-08-18T09:46:24.865Z,1006.83
2022-08-18T09:47:27.546Z,1006.76
2022-08-18T09:49:26.461Z,1006.73
2022-08-18T09:50:27.035Z,1006.76
2022-08-18T09:51:24.789Z,1006.75
2022-08-18T09:52:25.537Z,1006.74
2022-08-18T09:53:24.959Z,1006.76
2022-08-18T09:54:25.328Z,1006.76
2022-08-18T09:55:25.029Z,1006.73
2022-08-18T09:56:28.580Z,1006.70
2022-08-18T09:57:25.203Z,1006.64
2022-08-18T09:58:25.781Z,1006.64
2022-08-18T09:59:24.867Z,1006.60
2022-08-18T10:00:26.566Z,1006.56
2022-08-18T10:01:24.505Z,1006.55
2022-08-18T10:03:25.519Z,1006.58
2022-08-18T10:04:28.933Z,1006.56
2022-08-18T10:06:27.561Z,1006.62
2022-08-18T10:07:24.539Z,1006.60
2022-08-18T10:09:35.954Z,1006.53
2022-08-18T10:10:59.355Z,1006.51
2022-08-18T10:11:25.287Z,1006.49
2022-08-18T10:13:24.738Z,1006.43
2022-08-18T10:14:25.109Z,1006.44
2022-08-18T10:15:33.184Z,1006.49
2022-08-18T10:17:24.844Z,1006.48
2022-08-18T10:20:26.612Z,1006.47
2022-08-18T10:21:24.604Z,1006.50
2022-08-18T10:23:24.059Z,1006.51
2022-08-18T10:24:35.145Z,1006.49
2022-08-18T10:25:24.462Z,1006.51
2022-08-18T10:26:24.690Z,1006.47
2022-08-18T10:27:24.299Z,1006.50
2022-08-18T10:28:25.232Z,1006.47
2022-08-18T10:29:23.996Z,1006.51
2022-08-18T10:30:24.185Z,1006.51
2022-08-18T10:31:27.301Z,1006.48
2022-08-18T10:32:24.158Z,1006.46
2022-08-18T10:33:23.931Z,1006.45
2022-08-18T10:34:24.678Z,1006.48
2022-08-18T10:35:29.131Z,1006.49
2022-08-18T10:37:26.003Z,1006.50
2022-08-18T10:40:26.499Z,1006.54
2022-08-18T10:41:24.020Z,1006.47
2022-08-18T10:42:24.161Z,1006.46
2022-08-18T10:44:29.089Z,1006.46
2022-08-18T10:47:24.882Z,1006.49
2022-08-18T10:48:24.337Z,1006.51
2022-08-18T10:49:23.686Z,1006.52
2022-08-18T10:50:23.671Z,1006.56
2022-08-18T10:51:23.660Z,1006.55
2022-08-18T10:54:23.613Z,1006.52
2022-08-18T10:55:23.598Z,1006.48
2022-08-18T10:59:28.087Z,1006.57
2022-08-18T11:00:23.697Z,1006.57
2022-08-18T11:01:23.575Z,1006.57
2022-08-18T11:02:23.576Z,1006.56
2022-08-18T11:03:52.196Z,1006.55
2022-08-18T11:04:33.473Z,1006.51
2022-08-18T11:05:23.464Z,1006.52
2022-08-18T11:06:23.500Z,1006.52
2022-08-18T11:08:23.412Z,1006.53
2022-08-18T11:09:23.387Z,1006.49
2022-08-18T11:10:30.951Z,1006.46
2022-08-18T11:11:37.050Z,1006.47
2022-08-18T11:12:23.401Z,1006.47
2022-08-18T11:13:23.330Z,1006.46
2022-08-18T11:14:23.289Z,1006.47
2022-08-18T11:15:24.064Z,1006.48
2022-08-18T11:16:23.270Z,1006.48
2022-08-18T11:18:23.257Z,1006.51
2022-08-18T11:19:23.414Z,1006.51
2022-08-18T11:21:23.183Z,1006.49
2022-08-18T11:22:31.174Z,1006.48
2022-08-18T11:23:23.358Z,1006.50
2022-08-18T11:25:23.966Z,1006.51
2022-08-18T11:30:31.084Z,1006.47
2022-08-18T11:32:23.108Z,1006.42
2022-08-18T11:35:23.499Z,1006.41
2022-08-18T11:39:35.965Z,1006.44
2022-08-18T11:41:02.409Z,1006.42
2022-08-18T11:42:25.287Z,1006.37
2022-08-18T11:43:23.839Z,1006.37
2022-08-18T11:44:23.125Z,1006.33
2022-08-18T11:46:28.299Z,1006.28
2022-08-18T11:48:29.780Z,1006.27
2022-08-18T11:55:24.532Z,1006.26
2022-08-18T11:56:27.089Z,1006.26
2022-08-18T11:57:22.649Z,1006.25
2022-08-18T11:58:23.057Z,1006.22
2022-08-18T11:59:22.638Z,1006.21
2022-08-18T12:00:23.809Z,1006.20
2022-08-18T12:01:22.587Z,1006.21
2022-08-18T12:02:22.571Z,1006.26
2022-08-18T12:03:22.559Z,1006.24
2022-08-18T12:04:22.544Z,1006.27
2022-08-18T12:05:22.532Z,1006.28
2022-08-18T12:06:26.754Z,1006.23
2022-08-18T12:07:22.510Z,1006.20
2022-08-18T12:10:04.576Z,1006.14
2022-08-18T12:10:26.542Z,1006.13
2022-08-18T12:11:26.680Z,1006.09
2022-08-18T12:12:22.450Z,1006.09
2022-08-18T12:13:22.628Z,1006.11
2022-08-18T12:14:31.154Z,1006.14
2022-08-18T12:15:24.682Z,1006.10
2022-08-18T12:16:22.387Z,1006.11
2022-08-18T12:17:22.355Z,1006.05
2022-08-18T12:18:28.415Z,1006.08
2022-08-18T12:19:22.360Z,1006.07
2022-08-18T12:20:22.588Z,1006.06
2022-08-18T12:21:22.294Z,1006.04
2022-08-18T12:22:22.296Z,1006.04
2022-08-18T12:23:22.273Z,1006.01
2022-08-18T12:24:26.456Z,1006.04
2022-08-18T12:25:24.918Z,1006.02
2022-08-18T12:26:38.878Z,1006.04
2022-08-18T12:27:22.452Z,1006.04
2022-08-18T12:28:22.783Z,1006.03
2022-08-18T12:29:22.177Z,1006.00
2022-08-18T12:30:22.167Z,1005.99
2022-08-18T12:31:22.157Z,1005.98
2022-08-18T12:32:48.977Z,1006.01
2022-08-18T12:34:24.958Z,1006.01
2022-08-18T12:35:22.641Z,1005.99
2022-08-18T12:36:22.115Z,1006.00
2022-08-18T12:38:22.044Z,1005.99
2022-08-18T12:39:22.034Z,1005.96
2022-08-18T12:40:22.148Z,1005.97
2022-08-18T12:42:21.984Z,1005.87
2022-08-18T12:43:21.978Z,1005.85
2022-08-18T12:44:21.960Z,1005.83
2022-08-18T12:45:21.954Z,1005.77
2022-08-18T12:46:21.932Z,1005.78
2022-08-18T12:47:21.953Z,1005.76
2022-08-18T12:48:22.241Z,1005.69
2022-08-18T12:49:21.886Z,1005.73
2022-08-18T12:51:24.871Z,1005.75
2022-08-18T12:52:21.885Z,1005.74
2022-08-18T12:53:29.571Z,1005.74
2022-08-18T12:54:21.817Z,1005.76
2022-08-18T12:55:22.480Z,1005.77
2022-08-18T12:56:21.832Z,1005.69
2022-08-18T12:57:27.685Z,1005.71
2022-08-18T12:58:21.814Z,1005.69
2022-08-18T12:59:21.782Z,1005.70
2022-08-18T13:01:23.614Z,1005.72
2022-08-18T13:02:21.694Z,1005.80
2022-08-18T13:03:21.716Z,1005.82
2022-08-18T13:04:21.674Z,1005.86
2022-08-18T13:05:26.291Z,1005.87
2022-08-18T13:06:21.636Z,1005.87
2022-08-18T13:07:22.343Z,1005.87
2022-08-18T13:08:30.284Z,1005.85
2022-08-18T13:09:35.088Z,1005.89
2022-08-18T13:10:45.956Z,1005.92
2022-08-18T13:11:24.913Z,1005.93
2022-08-18T13:12:21.560Z,1005.84
2022-08-18T13:13:21.537Z,1005.91
2022-08-18T13:14:21.552Z,1005.97
2022-08-18T13:15:21.506Z,1006.00
2022-08-18T13:16:39.102Z,1006.01
2022-08-18T13:17:32.803Z,1005.99
2022-08-18T13:18:21.464Z,1006.04
2022-08-18T13:19:21.465Z,1006.06
2022-08-18T13:20:21.434Z,1006.10
2022-08-18T13:21:21.421Z,1006.12
2022-08-18T13:22:21.403Z,1006.13
2022-08-18T13:23:24.894Z,1006.15
2022-08-18T13:24:22.210Z,1006.13
2022-08-18T13:25:32.974Z,1006.11
2022-08-18T13:26:21.452Z,1006.12
2022-08-18T13:27:22.957Z,1006.15
2022-08-18T13:28:21.362Z,1006.14
2022-08-18T13:29:21.309Z,1006.20
2022-08-18T13:30:30.349Z,1006.23
2022-08-18T13:31:21.282Z,1006.20
2022-08-18T13:32:21.677Z,1006.27
2022-08-18T13:33:35.088Z,1006.29
2022-08-18T13:34:21.266Z,1006.29
2022-08-18T13:35:21.285Z,1006.28
2022-08-18T13:36:22.360Z,1006.25
2022-08-18T13:37:21.260Z,1006.22
2022-08-18T13:38:22.068Z,1006.22
2022-08-18T13:39:21.185Z,1006.17